sensor_id;sensor_type;location;lat;lon;timestamp;P1;durP1;ratioP1;P2;durP2;ratioP2
14342;SDS011;7255;53.596;9.960;2023-06-22T00:00:49;4.03;;;3.20;;
14342;SDS011;7255;53.596;9.960;2023-06-22T00:03:17;4.97;;;3.37;;
14342;SDS011;7255;53.596;9.960;2023-06-22T00:05:44;5.50;;;3.30;;
14342;SDS011;7255;53.596;9.960;2023-06-22T00:08:10;6.22;;;3.22;;
14342;SDS011;7255;53.596;9.960;2023-06-22T00:10:37;3.35;;;3.05;;
14342;SDS011;7255;53.596;9.960;2023-06-22T00:13:03;3.50;;;3.20;;
14342;SDS011;7255;53.596;9.960;2023-06-22T00:15:31;4.25;;;3.08;;
14342;SDS011;7255;53.596;9.960;2023-06-22T00:17:58;4.75;;;3.03;;
14342;SDS011;7255;53.596;9.960;2023-06-22T00:20:24;4.55;;;2.97;;
14342;SDS011;7255;53.596;9.960;2023-06-22T00:22:52;3.45;;;3.15;;
14342;SDS011;7255;53.596;9.960;2023-06-22T00:25:19;5.50;;;3.03;;
14342;SDS011;7255;53.596;9.960;2023-06-22T00:27:45;5.18;;;3.50;;
14342;SDS011;7255;53.596;9.960;2023-06-22T00:30:12;4.75;;;3.20;;
14342;SDS011;7255;53.596;9.960;2023-06-22T00:32:40;4.68;;;3.00;;
14342;SDS011;7255;53.596;9.960;2023-06-22T00:35:07;4.28;;;3.28;;
14342;SDS011;7255;53.596;9.960;2023-06-22T00:37:34;3.70;;;2.80;;
14342;SDS011;7255;53.596;9.960;2023-06-22T00:40:00;3.70;;;3.22;;
14342;SDS011;7255;53.596;9.960;2023-06-22T00:42:27;3.80;;;3.05;;
14342;SDS011;7255;53.596;9.960;2023-06-22T00:44:54;4.60;;;3.30;;
14342;SDS011;7255;53.596;9.960;2023-06-22T00:47:20;3.60;;;2.80;;
14342;SDS011;7255;53.596;9.960;2023-06-22T00:49:49;6.12;;;3.15;;
14342;SDS011;7255;53.596;9.960;2023-06-22T00:52:16;4.18;;;2.97;;
14342;SDS011;7255;53.596;9.960;2023-06-22T00:54:45;3.47;;;2.92;;
14342;SDS011;7255;53.596;9.960;2023-06-22T00:57:14;3.05;;;2.70;;
14342;SDS011;7255;53.596;9.960;2023-06-22T00:59:41;3.92;;;2.65;;
14342;SDS011;7255;53.596;9.960;2023-06-22T01:02:08;4.95;;;2.97;;
14342;SDS011;7255;53.596;9.960;2023-06-22T01:04:35;3.58;;;3.08;;
14342;SDS011;7255;53.596;9.960;2023-06-22T01:07:06;3.28;;;2.80;;
14342;SDS011;7255;53.596;9.960;2023-06-22T01:09:41;4.30;;;3.30;;
14342;SDS011;7255;53.596;9.960;2023-06-22T01:12:15;4.43;;;3.20;;
14342;SDS011;7255;53.596;9.960;2023-06-22T01:14:50;4.72;;;3.83;;
14342;SDS011;7255;53.596;9.960;2023-06-22T01:17:21;3.40;;;2.78;;
14342;SDS011;7255;53.596;9.960;2023-06-22T01:19:49;4.90;;;3.58;;
14342;SDS011;7255;53.596;9.960;2023-06-22T01:22:23;3.50;;;3.00;;
14342;SDS011;7255;53.596;9.960;2023-06-22T01:24:54;4.07;;;2.87;;
14342;SDS011;7255;53.596;9.960;2023-06-22T01:27:28;4.90;;;3.30;;
14342;SDS011;7255;53.596;9.960;2023-06-22T01:30:03;3.80;;;3.37;;
14342;SDS011;7255;53.596;9.960;2023-06-22T01:32:33;5.40;;;3.33;;
14342;SDS011;7255;53.596;9.960;2023-06-22T01:35:02;3.80;;;3.25;;
14342;SDS011;7255;53.596;9.960;2023-06-22T01:37:31;4.35;;;3.53;;
14342;SDS011;7255;53.596;9.960;2023-06-22T01:39:59;6.47;;;3.75;;
14342;SDS011;7255;53.596;9.960;2023-06-22T01:42:26;3.55;;;3.22;;
14342;SDS011;7255;53.596;9.960;2023-06-22T01:44:53;5.25;;;3.62;;
14342;SDS011;7255;53.596;9.960;2023-06-22T01:47:22;3.40;;;3.10;;
14342;SDS011;7255;53.596;9.960;2023-06-22T01:49:50;5.07;;;3.75;;
14342;SDS011;7255;53.596;9.960;2023-06-22T01:52:17;4.80;;;3.78;;
14342;SDS011;7255;53.596;9.960;2023-06-22T01:54:45;4.57;;;3.20;;
14342;SDS011;7255;53.596;9.960;2023-06-22T01:57:12;3.97;;;3.58;;
14342;SDS011;7255;53.596;9.960;2023-06-22T01:59:42;3.45;;;3.15;;
14342;SDS011;7255;53.596;9.960;2023-06-22T02:02:15;6.15;;;3.65;;
14342;SDS011;7255;53.596;9.960;2023-06-22T02:04:48;4.85;;;4.00;;
14342;SDS011;7255;53.596;9.960;2023-06-22T02:07:21;4.32;;;3.53;;
14342;SDS011;7255;53.596;9.960;2023-06-22T02:09:50;4.40;;;4.00;;
14342;SDS011;7255;53.596;9.960;2023-06-22T02:12:21;4.85;;;3.50;;
14342;SDS011;7255;53.596;9.960;2023-06-22T02:14:52;5.55;;;3.90;;
14342;SDS011;7255;53.596;9.960;2023-06-22T02:17:19;4.87;;;4.20;;
14342;SDS011;7255;53.596;9.960;2023-06-22T02:19:47;5.82;;;4.70;;
14342;SDS011;7255;53.596;9.960;2023-06-22T02:22:13;5.70;;;4.50;;
14342;SDS011;7255;53.596;9.960;2023-06-22T02:24:40;6.03;;;4.47;;
14342;SDS011;7255;53.596;9.960;2023-06-22T02:27:06;5.53;;;4.47;;
14342;SDS011;7255;53.596;9.960;2023-06-22T02:29:33;4.50;;;4.05;;
14342;SDS011;7255;53.596;9.960;2023-06-22T02:31:59;4.35;;;3.55;;
14342;SDS011;7255;53.596;9.960;2023-06-22T02:34:25;5.85;;;3.97;;
14342;SDS011;7255;53.596;9.960;2023-06-22T02:36:53;4.22;;;3.83;;
14342;SDS011;7255;53.596;9.960;2023-06-22T02:39:19;6.47;;;4.30;;
14342;SDS011;7255;53.596;9.960;2023-06-22T02:41:47;4.03;;;3.62;;
14342;SDS011;7255;53.596;9.960;2023-06-22T02:44:13;4.40;;;4.00;;
14342;SDS011;7255;53.596;9.960;2023-06-22T02:46:40;5.07;;;4.03;;
14342;SDS011;7255;53.596;9.960;2023-06-22T02:49:06;5.82;;;4.07;;
14342;SDS011;7255;53.596;9.960;2023-06-22T02:51:33;5.12;;;3.75;;
14342;SDS011;7255;53.596;9.960;2023-06-22T02:54:02;4.43;;;3.85;;
14342;SDS011;7255;53.596;9.960;2023-06-22T02:56:28;4.12;;;3.72;;
14342;SDS011;7255;53.596;9.960;2023-06-22T02:58:55;4.97;;;3.85;;
14342;SDS011;7255;53.596;9.960;2023-06-22T03:01:26;5.57;;;3.75;;
14342;SDS011;7255;53.596;9.960;2023-06-22T03:03:52;5.00;;;4.45;;
14342;SDS011;7255;53.596;9.960;2023-06-22T03:06:19;4.12;;;3.72;;
14342;SDS011;7255;53.596;9.960;2023-06-22T03:08:48;8.18;;;5.00;;
14342;SDS011;7255;53.596;9.960;2023-06-22T03:11:15;5.68;;;4.97;;
14342;SDS011;7255;53.596;9.960;2023-06-22T03:13:42;6.93;;;4.65;;
14342;SDS011;7255;53.596;9.960;2023-06-22T03:16:08;6.43;;;4.53;;
14342;SDS011;7255;53.596;9.960;2023-06-22T03:18:35;4.97;;;4.28;;
14342;SDS011;7255;53.596;9.960;2023-06-22T03:21:01;7.75;;;4.43;;
14342;SDS011;7255;53.596;9.960;2023-06-22T03:23:28;7.35;;;4.55;;
14342;SDS011;7255;53.596;9.960;2023-06-22T03:25:54;7.00;;;4.50;;
14342;SDS011;7255;53.596;9.960;2023-06-22T03:28:22;8.27;;;5.00;;
14342;SDS011;7255;53.596;9.960;2023-06-22T03:30:49;6.60;;;5.20;;
14342;SDS011;7255;53.596;9.960;2023-06-22T03:33:15;7.47;;;5.30;;
14342;SDS011;7255;53.596;9.960;2023-06-22T03:35:41;5.47;;;4.32;;
14342;SDS011;7255;53.596;9.960;2023-06-22T03:38:08;6.47;;;4.32;;
14342;SDS011;7255;53.596;9.960;2023-06-22T03:40:34;6.93;;;3.75;;
14342;SDS011;7255;53.596;9.960;2023-06-22T03:43:00;4.30;;;3.87;;
14342;SDS011;7255;53.596;9.960;2023-06-22T03:45:28;5.68;;;4.65;;
14342;SDS011;7255;53.596;9.960;2023-06-22T03:47:54;6.20;;;4.97;;
14342;SDS011;7255;53.596;9.960;2023-06-22T03:50:20;6.53;;;5.07;;
14342;SDS011;7255;53.596;9.960;2023-06-22T03:52:47;5.87;;;5.22;;
14342;SDS011;7255;53.596;9.960;2023-06-22T03:55:13;7.93;;;5.75;;
14342;SDS011;7255;53.596;9.960;2023-06-22T03:57:40;10.35;;;5.72;;
14342;SDS011;7255;53.596;9.960;2023-06-22T04:00:06;6.28;;;4.68;;
14342;SDS011;7255;53.596;9.960;2023-06-22T04:02:36;8.68;;;4.90;;
14342;SDS011;7255;53.596;9.960;2023-06-22T04:05:02;6.62;;;4.37;;
14342;SDS011;7255;53.596;9.960;2023-06-22T04:07:29;5.57;;;4.90;;
14342;SDS011;7255;53.596;9.960;2023-06-22T04:09:55;8.02;;;5.90;;
14342;SDS011;7255;53.596;9.960;2023-06-22T04:12:22;6.47;;;5.10;;
14342;SDS011;7255;53.596;9.960;2023-06-22T04:14:48;7.53;;;5.15;;
14342;SDS011;7255;53.596;9.960;2023-06-22T04:17:14;5.95;;;4.85;;
14342;SDS011;7255;53.596;9.960;2023-06-22T04:19:44;7.40;;;5.32;;
14342;SDS011;7255;53.596;9.960;2023-06-22T04:22:10;5.57;;;4.68;;
14342;SDS011;7255;53.596;9.960;2023-06-22T04:24:37;5.05;;;4.55;;
14342;SDS011;7255;53.596;9.960;2023-06-22T04:27:03;6.75;;;5.12;;
14342;SDS011;7255;53.596;9.960;2023-06-22T04:29:30;5.50;;;4.78;;
14342;SDS011;7255;53.596;9.960;2023-06-22T04:31:57;8.75;;;4.22;;
14342;SDS011;7255;53.596;9.960;2023-06-22T04:34:30;8.50;;;4.57;;
14342;SDS011;7255;53.596;9.960;2023-06-22T04:36:57;5.43;;;4.60;;
14342;SDS011;7255;53.596;9.960;2023-06-22T04:39:24;6.22;;;4.60;;
14342;SDS011;7255;53.596;9.960;2023-06-22T04:41:52;4.68;;;4.18;;
14342;SDS011;7255;53.596;9.960;2023-06-22T04:44:18;7.18;;;4.15;;
14342;SDS011;7255;53.596;9.960;2023-06-22T04:46:49;4.72;;;4.15;;
14342;SDS011;7255;53.596;9.960;2023-06-22T04:49:18;5.32;;;4.60;;
14342;SDS011;7255;53.596;9.960;2023-06-22T04:51:46;4.25;;;3.83;;
14342;SDS011;7255;53.596;9.960;2023-06-22T04:54:13;7.05;;;4.28;;
14342;SDS011;7255;53.596;9.960;2023-06-22T04:56:40;8.25;;;5.28;;
14342;SDS011;7255;53.596;9.960;2023-06-22T04:59:06;7.87;;;5.50;;
14342;SDS011;7255;53.596;9.960;2023-06-22T05:01:33;5.62;;;4.25;;
14342;SDS011;7255;53.596;9.960;2023-06-22T05:04:00;5.18;;;4.00;;
14342;SDS011;7255;53.596;9.960;2023-06-22T05:06:27;6.55;;;4.40;;
14342;SDS011;7255;53.596;9.960;2023-06-22T05:08:54;5.47;;;3.92;;
14342;SDS011;7255;53.596;9.960;2023-06-22T05:11:23;5.78;;;3.97;;
14342;SDS011;7255;53.596;9.960;2023-06-22T05:13:50;6.07;;;3.95;;
14342;SDS011;7255;53.596;9.960;2023-06-22T05:16:16;5.80;;;3.97;;
14342;SDS011;7255;53.596;9.960;2023-06-22T05:18:49;6.18;;;4.15;;
14342;SDS011;7255;53.596;9.960;2023-06-22T05:21:17;5.82;;;3.75;;
14342;SDS011;7255;53.596;9.960;2023-06-22T05:23:44;3.75;;;3.20;;
14342;SDS011;7255;53.596;9.960;2023-06-22T05:26:10;4.75;;;2.92;;
14342;SDS011;7255;53.596;9.960;2023-06-22T05:28:37;7.55;;;3.37;;
14342;SDS011;7255;53.596;9.960;2023-06-22T05:31:04;6.78;;;3.28;;
14342;SDS011;7255;53.596;9.960;2023-06-22T05:33:30;4.35;;;3.17;;
14342;SDS011;7255;53.596;9.960;2023-06-22T05:35:56;3.97;;;3.08;;
14342;SDS011;7255;53.596;9.960;2023-06-22T05:38:23;3.37;;;3.08;;
14342;SDS011;7255;53.596;9.960;2023-06-22T05:40:49;2.90;;;2.58;;
14342;SDS011;7255;53.596;9.960;2023-06-22T05:43:15;3.05;;;2.62;;
14342;SDS011;7255;53.596;9.960;2023-06-22T05:45:43;4.43;;;2.65;;
14342;SDS011;7255;53.596;9.960;2023-06-22T05:48:09;2.85;;;2.55;;
14342;SDS011;7255;53.596;9.960;2023-06-22T05:50:36;2.45;;;2.17;;
14342;SDS011;7255;53.596;9.960;2023-06-22T05:53:03;2.50;;;2.30;;
14342;SDS011;7255;53.596;9.960;2023-06-22T05:55:29;3.65;;;2.33;;
14342;SDS011;7255;53.596;9.960;2023-06-22T05:57:55;4.40;;;2.40;;
14342;SDS011;7255;53.596;9.960;2023-06-22T06:00:22;2.87;;;2.12;;
14342;SDS011;7255;53.596;9.960;2023-06-22T06:02:49;4.15;;;2.40;;
14342;SDS011;7255;53.596;9.960;2023-06-22T06:05:16;2.58;;;2.10;;
14342;SDS011;7255;53.596;9.960;2023-06-22T06:07:44;4.57;;;2.72;;
14342;SDS011;7255;53.596;9.960;2023-06-22T06:10:11;4.47;;;2.17;;
14342;SDS011;7255;53.596;9.960;2023-06-22T06:12:38;3.55;;;2.67;;
14342;SDS011;7255;53.596;9.960;2023-06-22T06:15:05;3.50;;;2.80;;
14342;SDS011;7255;53.596;9.960;2023-06-22T06:17:31;3.70;;;2.85;;
14342;SDS011;7255;53.596;9.960;2023-06-22T06:20:00;3.28;;;2.35;;
14342;SDS011;7255;53.596;9.960;2023-06-22T06:22:29;4.18;;;2.15;;
14342;SDS011;7255;53.596;9.960;2023-06-22T06:24:55;3.87;;;2.30;;
14342;SDS011;7255;53.596;9.960;2023-06-22T06:27:22;2.75;;;2.20;;
14342;SDS011;7255;53.596;9.960;2023-06-22T06:29:54;2.90;;;2.05;;
14342;SDS011;7255;53.596;9.960;2023-06-22T06:32:20;3.40;;;2.47;;
14342;SDS011;7255;53.596;9.960;2023-06-22T06:34:46;2.50;;;2.30;;
14342;SDS011;7255;53.596;9.960;2023-06-22T06:37:14;2.83;;;2.22;;
14342;SDS011;7255;53.596;9.960;2023-06-22T06:39:41;4.78;;;2.40;;
14342;SDS011;7255;53.596;9.960;2023-06-22T06:42:07;3.78;;;2.35;;
14342;SDS011;7255;53.596;9.960;2023-06-22T06:44:34;3.72;;;2.17;;
14342;SDS011;7255;53.596;9.960;2023-06-22T06:47:02;3.80;;;2.20;;
14342;SDS011;7255;53.596;9.960;2023-06-22T06:49:29;2.50;;;2.10;;
14342;SDS011;7255;53.596;9.960;2023-06-22T06:51:55;2.90;;;2.10;;
14342;SDS011;7255;53.596;9.960;2023-06-22T06:54:23;4.22;;;2.75;;
14342;SDS011;7255;53.596;9.960;2023-06-22T06:56:49;2.78;;;2.50;;
14342;SDS011;7255;53.596;9.960;2023-06-22T06:59:15;3.08;;;2.55;;
14342;SDS011;7255;53.596;9.960;2023-06-22T07:01:42;2.30;;;2.03;;
14342;SDS011;7255;53.596;9.960;2023-06-22T07:04:09;2.87;;;2.53;;
14342;SDS011;7255;53.596;9.960;2023-06-22T07:06:35;2.35;;;2.00;;
14342;SDS011;7255;53.596;9.960;2023-06-22T07:09:02;3.12;;;2.53;;
14342;SDS011;7255;53.596;9.960;2023-06-22T07:11:30;3.05;;;2.33;;
14342;SDS011;7255;53.596;9.960;2023-06-22T07:13:56;2.37;;;1.83;;
14342;SDS011;7255;53.596;9.960;2023-06-22T07:16:23;2.78;;;2.50;;
14342;SDS011;7255;53.596;9.960;2023-06-22T07:18:50;3.53;;;2.53;;
14342;SDS011;7255;53.596;9.960;2023-06-22T07:21:16;3.00;;;2.42;;
14342;SDS011;7255;53.596;9.960;2023-06-22T07:23:43;4.65;;;2.10;;
14342;SDS011;7255;53.596;9.960;2023-06-22T07:26:09;4.85;;;2.87;;
14342;SDS011;7255;53.596;9.960;2023-06-22T07:28:38;3.35;;;2.35;;
14342;SDS011;7255;53.596;9.960;2023-06-22T07:31:05;3.35;;;2.28;;
14342;SDS011;7255;53.596;9.960;2023-06-22T07:33:32;4.68;;;2.62;;
14342;SDS011;7255;53.596;9.960;2023-06-22T07:35:58;3.65;;;2.35;;
14342;SDS011;7255;53.596;9.960;2023-06-22T07:38:25;4.20;;;2.45;;
14342;SDS011;7255;53.596;9.960;2023-06-22T07:40:51;4.55;;;2.22;;
14342;SDS011;7255;53.596;9.960;2023-06-22T07:43:18;2.30;;;1.73;;
14342;SDS011;7255;53.596;9.960;2023-06-22T07:45:49;4.62;;;2.55;;
14342;SDS011;7255;53.596;9.960;2023-06-22T07:48:19;4.22;;;2.10;;
14342;SDS011;7255;53.596;9.960;2023-06-22T07:50:46;2.35;;;2.12;;
14342;SDS011;7255;53.596;9.960;2023-06-22T07:53:12;2.08;;;1.87;;
14342;SDS011;7255;53.596;9.960;2023-06-22T07:55:38;4.70;;;1.90;;
14342;SDS011;7255;53.596;9.960;2023-06-22T07:58:05;3.42;;;2.55;;
14342;SDS011;7255;53.596;9.960;2023-06-22T08:00:33;2.35;;;1.90;;
14342;SDS011;7255;53.596;9.960;2023-06-22T08:03:01;3.72;;;2.10;;
14342;SDS011;7255;53.596;9.960;2023-06-22T08:05:28;3.20;;;2.00;;
14342;SDS011;7255;53.596;9.960;2023-06-22T08:07:55;2.20;;;1.58;;
14342;SDS011;7255;53.596;9.960;2023-06-22T08:10:21;2.45;;;2.20;;
14342;SDS011;7255;53.596;9.960;2023-06-22T08:12:47;2.87;;;2.20;;
14342;SDS011;7255;53.596;9.960;2023-06-22T08:15:14;3.53;;;1.98;;
14342;SDS011;7255;53.596;9.960;2023-06-22T08:17:40;1.92;;;1.73;;
14342;SDS011;7255;53.596;9.960;2023-06-22T08:20:09;2.72;;;2.05;;
14342;SDS011;7255;53.596;9.960;2023-06-22T08:22:37;3.25;;;2.00;;
14342;SDS011;7255;53.596;9.960;2023-06-22T08:25:03;3.85;;;1.87;;
14342;SDS011;7255;53.596;9.960;2023-06-22T08:27:31;2.37;;;1.67;;
14342;SDS011;7255;53.596;9.960;2023-06-22T08:29:57;2.05;;;1.90;;
14342;SDS011;7255;53.596;9.960;2023-06-22T08:32:24;2.75;;;2.40;;
14342;SDS011;7255;53.596;9.960;2023-06-22T08:34:51;4.28;;;2.30;;
14342;SDS011;7255;53.596;9.960;2023-06-22T08:37:19;2.22;;;2.03;;
14342;SDS011;7255;53.596;9.960;2023-06-22T08:39:45;2.20;;;2.00;;
14342;SDS011;7255;53.596;9.960;2023-06-22T08:42:12;3.75;;;2.33;;
14342;SDS011;7255;53.596;9.960;2023-06-22T08:44:38;2.85;;;2.20;;
14342;SDS011;7255;53.596;9.960;2023-06-22T08:47:04;2.97;;;2.00;;
14342;SDS011;7255;53.596;9.960;2023-06-22T08:49:31;3.45;;;2.10;;
14342;SDS011;7255;53.596;9.960;2023-06-22T08:51:57;2.30;;;2.10;;
14342;SDS011;7255;53.596;9.960;2023-06-22T08:54:25;2.90;;;2.17;;
14342;SDS011;7255;53.596;9.960;2023-06-22T08:56:51;3.03;;;1.98;;
14342;SDS011;7255;53.596;9.960;2023-06-22T08:59:18;2.87;;;2.15;;
14342;SDS011;7255;53.596;9.960;2023-06-22T09:01:44;2.60;;;2.03;;
14342;SDS011;7255;53.596;9.960;2023-06-22T09:04:13;2.78;;;2.05;;
14342;SDS011;7255;53.596;9.960;2023-06-22T09:06:40;3.20;;;1.98;;
14342;SDS011;7255;53.596;9.960;2023-06-22T09:09:10;2.67;;;1.85;;
14342;SDS011;7255;53.596;9.960;2023-06-22T09:11:37;3.70;;;2.40;;
14342;SDS011;7255;53.596;9.960;2023-06-22T09:14:04;1.87;;;1.77;;
14342;SDS011;7255;53.596;9.960;2023-06-22T09:16:30;2.17;;;1.98;;
14342;SDS011;7255;53.596;9.960;2023-06-22T09:18:56;2.72;;;2.20;;
14342;SDS011;7255;53.596;9.960;2023-06-22T09:21:23;2.40;;;2.20;;
14342;SDS011;7255;53.596;9.960;2023-06-22T09:23:49;4.90;;;1.95;;
14342;SDS011;7255;53.596;9.960;2023-06-22T09:26:16;3.30;;;2.03;;
14342;SDS011;7255;53.596;9.960;2023-06-22T09:28:43;3.75;;;1.95;;
14342;SDS011;7255;53.596;9.960;2023-06-22T09:31:10;2.55;;;1.98;;
14342;SDS011;7255;53.596;9.960;2023-06-22T09:33:37;2.53;;;1.80;;
14342;SDS011;7255;53.596;9.960;2023-06-22T09:36:04;3.78;;;2.33;;
14342;SDS011;7255;53.596;9.960;2023-06-22T09:38:32;3.62;;;2.37;;
14342;SDS011;7255;53.596;9.960;2023-06-22T09:41:00;4.18;;;2.58;;
14342;SDS011;7255;53.596;9.960;2023-06-22T09:43:26;5.68;;;2.28;;
14342;SDS011;7255;53.596;9.960;2023-06-22T09:45:54;3.50;;;2.50;;
14342;SDS011;7255;53.596;9.960;2023-06-22T09:48:21;3.95;;;2.20;;
14342;SDS011;7255;53.596;9.960;2023-06-22T09:50:48;2.78;;;2.12;;
14342;SDS011;7255;53.596;9.960;2023-06-22T09:53:14;3.80;;;2.42;;
14342;SDS011;7255;53.596;9.960;2023-06-22T09:55:40;3.45;;;2.10;;
14342;SDS011;7255;53.596;9.960;2023-06-22T09:58:07;2.90;;;2.10;;
14342;SDS011;7255;53.596;9.960;2023-06-22T10:00:34;4.07;;;2.45;;
14342;SDS011;7255;53.596;9.960;2023-06-22T10:03:02;2.40;;;1.92;;
14342;SDS011;7255;53.596;9.960;2023-06-22T10:05:28;2.70;;;2.03;;
14342;SDS011;7255;53.596;9.960;2023-06-22T10:07:54;4.10;;;2.00;;
14342;SDS011;7255;53.596;9.960;2023-06-22T10:10:21;4.10;;;2.20;;
14342;SDS011;7255;53.596;9.960;2023-06-22T10:12:48;2.12;;;1.87;;
14342;SDS011;7255;53.596;9.960;2023-06-22T10:15:20;3.83;;;2.00;;
14342;SDS011;7255;53.596;9.960;2023-06-22T10:17:47;2.28;;;2.08;;
14342;SDS011;7255;53.596;9.960;2023-06-22T10:20:14;2.85;;;1.92;;
14342;SDS011;7255;53.596;9.960;2023-06-22T10:22:44;4.05;;;2.20;;
14342;SDS011;7255;53.596;9.960;2023-06-22T10:25:11;2.42;;;2.22;;
14342;SDS011;7255;53.596;9.960;2023-06-22T10:27:38;3.67;;;2.17;;
14342;SDS011;7255;53.596;9.960;2023-06-22T10:30:06;3.83;;;2.22;;
14342;SDS011;7255;53.596;9.960;2023-06-22T10:32:33;2.30;;;2.00;;
14342;SDS011;7255;53.596;9.960;2023-06-22T10:34:59;3.28;;;2.60;;
14342;SDS011;7255;53.596;9.960;2023-06-22T10:37:27;2.70;;;2.20;;
14342;SDS011;7255;53.596;9.960;2023-06-22T10:39:53;3.75;;;2.53;;
14342;SDS011;7255;53.596;9.960;2023-06-22T10:42:20;4.20;;;2.50;;
14342;SDS011;7255;53.596;9.960;2023-06-22T10:44:46;2.85;;;2.30;;
14342;SDS011;7255;53.596;9.960;2023-06-22T10:47:12;4.25;;;2.80;;
14342;SDS011;7255;53.596;9.960;2023-06-22T10:49:39;3.28;;;2.05;;
14342;SDS011;7255;53.596;9.960;2023-06-22T10:52:06;2.80;;;2.30;;
14342;SDS011;7255;53.596;9.960;2023-06-22T10:54:34;3.08;;;2.25;;
14342;SDS011;7255;53.596;9.960;2023-06-22T10:57:01;2.92;;;2.35;;
14342;SDS011;7255;53.596;9.960;2023-06-22T10:59:28;4.75;;;2.50;;
14342;SDS011;7255;53.596;9.960;2023-06-22T11:01:54;2.00;;;1.62;;
14342;SDS011;7255;53.596;9.960;2023-06-22T11:04:21;2.60;;;2.37;;
14342;SDS011;7255;53.596;9.960;2023-06-22T11:06:47;4.18;;;2.30;;
14342;SDS011;7255;53.596;9.960;2023-06-22T11:09:14;3.62;;;2.30;;
14342;SDS011;7255;53.596;9.960;2023-06-22T11:11:44;2.55;;;1.92;;
14342;SDS011;7255;53.596;9.960;2023-06-22T11:14:11;3.70;;;2.25;;
14342;SDS011;7255;53.596;9.960;2023-06-22T11:16:37;3.00;;;2.37;;
14342;SDS011;7255;53.596;9.960;2023-06-22T11:19:04;4.00;;;3.03;;
14342;SDS011;7255;53.596;9.960;2023-06-22T11:21:31;3.35;;;2.60;;
14342;SDS011;7255;53.596;9.960;2023-06-22T11:23:58;2.47;;;2.12;;
14342;SDS011;7255;53.596;9.960;2023-06-22T11:26:24;5.40;;;2.83;;
14342;SDS011;7255;53.596;9.960;2023-06-22T11:28:53;3.15;;;2.65;;
14342;SDS011;7255;53.596;9.960;2023-06-22T11:31:20;3.55;;;2.67;;
14342;SDS011;7255;53.596;9.960;2023-06-22T11:33:46;3.03;;;2.60;;
14342;SDS011;7255;53.596;9.960;2023-06-22T11:36:13;3.90;;;2.50;;
14342;SDS011;7255;53.596;9.960;2023-06-22T11:38:40;4.22;;;2.33;;
14342;SDS011;7255;53.596;9.960;2023-06-22T11:41:07;3.30;;;2.42;;
14342;SDS011;7255;53.596;9.960;2023-06-22T11:43:33;2.90;;;2.20;;
14342;SDS011;7255;53.596;9.960;2023-06-22T11:46:02;3.17;;;2.78;;
14342;SDS011;7255;53.596;9.960;2023-06-22T11:48:29;2.72;;;2.50;;
14342;SDS011;7255;53.596;9.960;2023-06-22T11:50:56;3.35;;;2.62;;
14342;SDS011;7255;53.596;9.960;2023-06-22T11:53:24;3.25;;;2.65;;
14342;SDS011;7255;53.596;9.960;2023-06-22T11:55:53;4.25;;;2.75;;
14342;SDS011;7255;53.596;9.960;2023-06-22T11:58:20;2.92;;;2.55;;
14342;SDS011;7255;53.596;9.960;2023-06-22T12:00:46;3.28;;;2.97;;
14342;SDS011;7255;53.596;9.960;2023-06-22T12:03:14;3.20;;;2.90;;
14342;SDS011;7255;53.596;9.960;2023-06-22T12:05:41;4.12;;;3.00;;
14342;SDS011;7255;53.596;9.960;2023-06-22T12:08:08;3.10;;;2.35;;
14342;SDS011;7255;53.596;9.960;2023-06-22T12:10:34;3.60;;;2.90;;
14342;SDS011;7255;53.596;9.960;2023-06-22T12:13:01;2.42;;;2.22;;
14342;SDS011;7255;53.596;9.960;2023-06-22T12:15:27;3.30;;;2.40;;
14342;SDS011;7255;53.596;9.960;2023-06-22T12:17:53;2.95;;;2.65;;
14342;SDS011;7255;53.596;9.960;2023-06-22T12:20:21;2.80;;;2.58;;
14342;SDS011;7255;53.596;9.960;2023-06-22T12:22:47;3.70;;;2.87;;
14342;SDS011;7255;53.596;9.960;2023-06-22T12:25:16;3.90;;;2.55;;
14342;SDS011;7255;53.596;9.960;2023-06-22T12:27:42;3.42;;;3.12;;
14342;SDS011;7255;53.596;9.960;2023-06-22T12:30:09;2.80;;;2.58;;
14342;SDS011;7255;53.596;9.960;2023-06-22T12:32:35;3.22;;;2.70;;
14342;SDS011;7255;53.596;9.960;2023-06-22T12:35:02;4.03;;;2.78;;
14342;SDS011;7255;53.596;9.960;2023-06-22T12:37:29;3.90;;;2.42;;
14342;SDS011;7255;53.596;9.960;2023-06-22T12:39:57;3.55;;;2.58;;
14342;SDS011;7255;53.596;9.960;2023-06-22T12:42:23;3.45;;;3.12;;
14342;SDS011;7255;53.596;9.960;2023-06-22T12:44:51;5.12;;;2.85;;
14342;SDS011;7255;53.596;9.960;2023-06-22T12:47:17;4.28;;;2.95;;
14342;SDS011;7255;53.596;9.960;2023-06-22T12:49:45;3.60;;;3.03;;
14342;SDS011;7255;53.596;9.960;2023-06-22T12:52:11;4.75;;;3.20;;
14342;SDS011;7255;53.596;9.960;2023-06-22T12:54:39;3.78;;;3.30;;
14342;SDS011;7255;53.596;9.960;2023-06-22T12:57:05;4.85;;;3.37;;
14342;SDS011;7255;53.596;9.960;2023-06-22T12:59:32;4.30;;;3.37;;
14342;SDS011;7255;53.596;9.960;2023-06-22T13:01:58;3.80;;;3.35;;
14342;SDS011;7255;53.596;9.960;2023-06-22T13:04:24;3.22;;;2.83;;
14342;SDS011;7255;53.596;9.960;2023-06-22T13:06:51;4.85;;;3.25;;
14342;SDS011;7255;53.596;9.960;2023-06-22T13:09:18;3.30;;;2.90;;
14342;SDS011;7255;53.596;9.960;2023-06-22T13:11:46;3.80;;;3.20;;
14342;SDS011;7255;53.596;9.960;2023-06-22T13:14:12;3.30;;;2.95;;
14342;SDS011;7255;53.596;9.960;2023-06-22T13:16:38;3.20;;;2.90;;
14342;SDS011;7255;53.596;9.960;2023-06-22T13:19:04;3.12;;;2.92;;
14342;SDS011;7255;53.596;9.960;2023-06-22T13:21:31;4.25;;;3.65;;
14342;SDS011;7255;53.596;9.960;2023-06-22T13:23:59;3.95;;;3.55;;
14342;SDS011;7255;53.596;9.960;2023-06-22T13:26:26;3.62;;;3.33;;
14342;SDS011;7255;53.596;9.960;2023-06-22T13:28:54;5.10;;;3.37;;
14342;SDS011;7255;53.596;9.960;2023-06-22T13:31:21;3.40;;;3.10;;
14342;SDS011;7255;53.596;9.960;2023-06-22T13:33:48;3.35;;;3.05;;
14342;SDS011;7255;53.596;9.960;2023-06-22T13:36:17;5.30;;;3.25;;
14342;SDS011;7255;53.596;9.960;2023-06-22T13:38:43;4.03;;;3.28;;
14342;SDS011;7255;53.596;9.960;2023-06-22T13:41:09;4.53;;;3.25;;
14342;SDS011;7255;53.596;9.960;2023-06-22T13:43:36;3.65;;;3.10;;
14342;SDS011;7255;53.596;9.960;2023-06-22T13:46:03;4.05;;;3.55;;
14342;SDS011;7255;53.596;9.960;2023-06-22T13:48:30;7.00;;;2.90;;
14342;SDS011;7255;53.596;9.960;2023-06-22T13:50:57;3.90;;;3.12;;
14342;SDS011;7255;53.596;9.960;2023-06-22T13:53:24;4.28;;;3.30;;
14342;SDS011;7255;53.596;9.960;2023-06-22T13:55:50;3.75;;;3.17;;
14342;SDS011;7255;53.596;9.960;2023-06-22T13:58:17;3.37;;;2.97;;
14342;SDS011;7255;53.596;9.960;2023-06-22T14:00:44;4.75;;;3.00;;
14342;SDS011;7255;53.596;9.960;2023-06-22T14:03:12;3.50;;;3.20;;
14342;SDS011;7255;53.596;9.960;2023-06-22T14:05:40;3.40;;;3.10;;
14342;SDS011;7255;53.596;9.960;2023-06-22T14:08:07;4.62;;;3.12;;
14342;SDS011;7255;53.596;9.960;2023-06-22T14:10:34;4.82;;;3.37;;
14342;SDS011;7255;53.596;9.960;2023-06-22T14:13:00;3.50;;;3.20;;
14342;SDS011;7255;53.596;9.960;2023-06-22T14:15:26;3.70;;;3.17;;
14342;SDS011;7255;53.596;9.960;2023-06-22T14:17:52;3.97;;;3.05;;
14342;SDS011;7255;53.596;9.960;2023-06-22T14:20:20;3.40;;;3.00;;
14342;SDS011;7255;53.596;9.960;2023-06-22T14:22:46;3.53;;;3.10;;
14342;SDS011;7255;53.596;9.960;2023-06-22T14:25:13;3.80;;;3.30;;
14342;SDS011;7255;53.596;9.960;2023-06-22T14:27:39;3.72;;;3.40;;
14342;SDS011;7255;53.596;9.960;2023-06-22T14:30:06;4.53;;;2.80;;
14342;SDS011;7255;53.596;9.960;2023-06-22T14:32:33;4.85;;;3.60;;
14342;SDS011;7255;53.596;9.960;2023-06-22T14:34:59;3.30;;;2.95;;
14342;SDS011;7255;53.596;9.960;2023-06-22T14:37:26;3.78;;;2.85;;
14342;SDS011;7255;53.596;9.960;2023-06-22T14:39:53;3.55;;;3.10;;
14342;SDS011;7255;53.596;9.960;2023-06-22T14:42:19;4.37;;;3.20;;
14342;SDS011;7255;53.596;9.960;2023-06-22T14:44:47;3.50;;;3.20;;
14342;SDS011;7255;53.596;9.960;2023-06-22T14:47:13;3.90;;;2.80;;
14342;SDS011;7255;53.596;9.960;2023-06-22T14:49:40;3.30;;;3.00;;
14342;SDS011;7255;53.596;9.960;2023-06-22T14:52:06;4.12;;;3.53;;
14342;SDS011;7255;53.596;9.960;2023-06-22T14:54:34;3.37;;;3.08;;
14342;SDS011;7255;53.596;9.960;2023-06-22T14:57:00;3.53;;;3.22;;
14342;SDS011;7255;53.596;9.960;2023-06-22T14:59:27;4.57;;;3.37;;